dinsdag 2 juni 2020 | Home | Bestenlijsten | Bestenlijsten NL | Calculators | Nieuws | Records | Uitslagen | VZA Ranglijsten | Weer |
 
Recent nieuws meer nieuws
28-05: Is snelheid een relatief begrip? Maar dan op herhaling
19-05: Snelheid een relatief begrip?
06-05: Mag huidig niveau hardlopen zomaar vergeleken worden met dat van de jaren 70?
28-04: Ook na 1 juni Run your own race
24-04: Zeeuws record 15 km van John Vermeule meest kansrijk om ooit te worden verbroken
21-04: Kunnen we na 1 juni stoppen met Run your own race?
 
Zoek tenminste met 3 tekens van wedstrijd, datum, plaats of atleet

4e Natuurloop

Retranchement, zondag 10 maart 2019 - Organisatie: Wielingen
10.8 km
PltsNaam
Tijdkm/umin/kmm/secgap
1  Jeroen KramerZaandam41.45minMse   15.521  3:524.31-
2  Angelo Van NevelZedelgem46.49minMse   13.841  4:203.84+5:04
3  Erik CapponZuidzande46.55minM50   13.812  4:213.84+5:10
4  Patrick van MorrelgemSluis50.05minMse   12.938  4:383.59+8:20
5  Frederique BurkinBreskens52.05minV45   12.442  4:493.46+10:20
6  Dimmy IvensSchoondijke52.29minMse   12.347  4:523.43+10:44
7  Simon de FeijterBreskens53.47minM50   12.048  4:593.35+12:02
8  Tom du PuyIJzendijke53.51minMse   12.033  4:593.34+12:06
9  Jaap van der VeenTerneuzen53.59minM50   12.004  5:003.33+12:14
10  Mark BuitendijkBreskens55.49minMse   11.609  5:103.22+14:04
11  Bart DejaegherDiksmuide56.18minMse   11.510  5:133.20+14:33
12  HeirmanMoerbeke58.19minM50   11.112  5:243.09+16:34
13  Frans DaalmanBreskens58.35minM50   11.061  5:253.07+16:50
14  Bram GoethalsSchoondijke58.41minMse   11.042  5:263.07+16:56
15  Katrien van HaverRonsele1.01.16minVse   10.577  5:402.94+19:31
16  Johnny DoomsTerneuzen1.02.54minM65   10.302  5:492.86+21:09
17  Guus de SmitSchoondijke1.03.29minM50   10.207  5:532.84+21:44
18  Fred VermeireBreskens1.03.35minM50   10.191  5:532.83+21:50
19  Anne-Marie ThomaesHoofdplaat1.08.52minVse   9.409  6:232.61+27:07
Mannen: 16 (84.21%) => M50=7 - M65=1 - Mse=8

Overzicht Top3, winnares en aantal deelnemers van aanwezige edities

JaarWinnaarTijd2eTijd 3eTijdWinnaresTijd#

10 km

2020Angelo van Nevel40:45Erik Cappon40:54Robert Vroon43:40Evelien de Visser50:0815
2019Angelo van Nevel39:59Maarten Loopgids40:50Erik Cappon41:19Frederique Burkin44:3025

10.8 km

2018Yves Depoorter42:20Angelo van Nevel42:38Stefaan Vanneste45:53Kristien Laeveren56:5829

8.4 km

2017Yves de Poorter33:20Michael Dewilde33:29Angelo van Nevel35:08Frederique Burkin39:3763

9.7 km

2016Stefaan Vanneste39:07Edwin de la Ruelle39:19Angelo van Nevel39:40Ann Vergote57:0932
2015Martijn de Kok37:06Bart Bleyaert38:37Sander Post39:14Myrthe Faro53:0635
5.4 km
PltsNaam
Tijdkm/umin/kmm/secgap
1  Eline LangeveldZaandam22.49minVse   14.200  4:143.94-
2  Floris HuighSchoondijke26.20minMse   12.304  4:533.42+3:31
3  Luc QuintensHoeke27.13minM50   11.904  5:023.31+4:24
4  Peter van WaesAardenburg27.29minM55   11.789  5:053.27+4:40
5  Pieter LegeinZedelgem27.51minMse   11.634  5:093.23+5:02
6  Michel de RuijsscherBreskens28.26minM50   11.395  5:163.17+5:37
7  Kurt de MuytDamme29.20minM50   11.045  5:263.07+6:31
8  Anoucha BauteKaprijke29.54minVse   10.836  5:323.01+7:05
9  Rini FenijnNieuwvliet29.58minM50   10.812  5:333.00+7:09
10  Joel BoucheRonsele30.46minMse   10.531  5:422.93+7:57
11  Yente van CuijckRetranchement31.12minVse   10.385  5:472.88+8:23
12  Ronny TresonieHeille31.14minMse   10.374  5:472.88+8:25
13  Kevin WillemsBrugge32.48minMse   9.878  6:042.74+9:59
14  Anne-Mie DepretreMoerkerke33.08minV50   9.779  6:082.72+10:19
15  Wendy van de VeldeHoofdplaat33.10minVse   9.769  6:092.71+10:21
16  Giovanni BoumanOostburg33.42minMse   9.614  6:142.67+10:53
17  Johan HuighSchoondijke34.51minM55   9.297  6:272.58+12:02
18  George SchanckOostburg35.29minM35   9.131  6:342.54+12:40
19  Rik van SchuurOostburg36.13minM70   8.946  6:422.49+13:24
20  Pauline ScheeleOostburg37.12minVse   8.710  6:532.42+14:23
21  Maarten van DoeselassaBiervliet37.30minM50   8.640  6:572.40+14:41
22  Daisy van de VeldeOostburg39.54minVse   8.120  7:232.26+17:05
23  Naomi MaasGroede42.09minVse   7.687  7:482.14+19:20
24  Enrico MaasGroede42.10minM50   7.684  7:492.13+19:21
Mannen: 16 (66.67%) => M35=1 - M50=6 - M55=2 - M70=1 - Mse=6
Vrouwen: 8 (33.33%) => V50=1 - Vse=7

Snelheid en tempo zijn berekend op de vermelde afstand. Bij een onjuiste afstand wijken deze uiteraard af!

Fouten melden via info@atletiekzeeland.nl Categorie fout? Mail dan geboortedatum. (geldt alleen voor Zeeuwen)

De server had 0.145 seconden nodig om deze lijst met 43 prestaties samen te stellen.

Terug naar boven


 
Atletiek Zeeland © 2020